Time;durP1;ratioP1;P1;durP2;ratioP2;P2;SDS_P1;SDS_P2;PMS_P1;PMS_P2;Temp;Humidity;BMP_temperature;BMP_pressure;BME280_temperature;BME280_humidity;BME280_pressure;Samples;Min_cycle;Max_cycle;Signal;HPM_P1;HPM_P2
2022/08/07 00:01:31;;;;;;;1.23;0.75;;;;;;;16.87;53.57;99791.19;5055252;28;20055;-77
2022/08/07 00:03:56;;;;;;;0.95;0.63;;;;;;;16.89;54.20;99825.97;5073030;28;20119;-77
2022/08/07 00:06:22;;;;;;;1.00;0.77;;;;;;;16.80;54.35;99814.88;5055220;28;20369;-77
2022/08/07 00:08:47;;;;;;;0.68;0.63;;;;;;;16.66;54.56;99823.75;5071725;28;20075;-77
2022/08/07 00:11:13;;;;;;;1.63;0.77;;;;;;;16.71;54.93;99831.84;5054991;28;20089;-77
2022/08/07 00:13:39;;;;;;;0.93;0.90;;;;;;;16.41;55.96;99817.13;5054993;28;20418;-77
2022/08/07 00:16:04;;;;;;;1.60;1.00;;;;;;;16.28;56.03;99832.97;5071708;28;20737;-77
2022/08/07 00:18:31;;;;;;;1.05;0.85;;;;;;;16.08;56.62;99812.09;5071489;28;20020;-77
2022/08/07 00:21:02;;;;;;;0.80;0.80;;;;;;;15.81;57.04;99816.78;5072893;28;20059;-77
2022/08/07 00:23:30;;;;;;;1.60;1.10;;;;;;;16.02;56.44;99829.31;5054548;28;20028;-77
2022/08/07 00:25:55;;;;;;;0.80;0.80;;;;;;;16.23;56.09;99825.66;5054769;28;20039;-77
2022/08/07 00:28:21;;;;;;;0.60;0.60;;;;;;;16.21;55.46;99800.88;5072643;28;20036;-77
2022/08/07 00:30:47;;;;;;;0.80;0.80;;;;;;;15.74;58.37;99821.56;5072695;28;20504;-77
2022/08/07 00:33:12;;;;;;;2.80;1.13;;;;;;;15.35;59.14;99818.28;5071212;28;20542;-77
2022/08/07 00:35:38;;;;;;;1.55;1.08;;;;;;;15.15;59.30;99825.31;5072545;28;20066;-77
2022/08/07 00:38:04;;;;;;;2.70;1.33;;;;;;;14.98;59.52;99826.22;5072351;28;20123;-77
2022/08/07 00:40:30;;;;;;;0.90;0.90;;;;;;;15.16;58.65;99818.91;5070141;28;20024;-77
2022/08/07 00:42:55;;;;;;;1.65;0.88;;;;;;;15.79;56.94;99818.13;5072280;28;20039;-77
2022/08/07 00:45:22;;;;;;;1.13;1.10;;;;;;;15.71;57.42;99816.69;5072450;28;20024;-77
2022/08/07 00:47:48;;;;;;;1.30;1.00;;;;;;;15.72;56.93;99827.22;5070565;28;20115;-77
2022/08/07 00:50:14;;;;;;;0.85;0.85;;;;;;;15.81;56.33;99808.72;5071746;28;20032;-77
2022/08/07 00:52:39;;;;;;;2.38;1.38;;;;;;;15.79;56.34;99813.56;5070608;28;20499;-77
2022/08/07 00:55:05;;;;;;;0.80;0.80;;;;;;;15.91;56.30;99821.41;5070963;28;20044;-77
2022/08/07 00:57:31;;;;;;;0.63;0.63;;;;;;;16.13;56.46;99812.16;5070975;28;20116;-77
2022/08/07 00:59:57;;;;;;;0.65;0.63;;;;;;;16.41;55.38;99819.00;5072307;28;20112;-77
2022/08/07 01:02:24;;;;;;;0.88;0.88;;;;;;;16.18;55.52;99803.28;5070768;28;20029;-77
2022/08/07 01:04:49;;;;;;;0.80;0.70;;;;;;;16.21;55.58;99811.63;5054104;28;20028;-77
2022/08/07 01:07:15;;;;;;;1.33;0.80;;;;;;;16.32;55.78;99790.94;5070594;28;20028;-77
2022/08/07 01:09:40;;;;;;;0.75;0.75;;;;;;;16.46;55.47;99806.38;5070544;28;20032;-77
2022/08/07 01:12:06;;;;;;;1.42;1.08;;;;;;;16.35;55.38;99803.91;5070834;28;20432;-77
2022/08/07 01:14:31;;;;;;;1.23;0.80;;;;;;;16.34;55.78;99800.41;5071960;28;20480;-77
2022/08/07 01:16:58;;;;;;;1.95;0.70;;;;;;;15.99;56.13;99791.34;5071804;28;20082;-77
2022/08/07 01:19:25;;;;;;;0.90;0.90;;;;;;;15.91;57.13;99798.00;5070712;28;20035;-77
2022/08/07 01:21:51;;;;;;;0.93;0.80;;;;;;;15.45;58.19;99796.84;5072142;28;20049;-77
2022/08/07 01:24:18;;;;;;;0.60;0.60;;;;;;;15.26;59.01;99794.78;5071922;28;20417;-77
2022/08/07 01:26:43;;;;;;;1.05;1.05;;;;;;;15.41;57.73;99792.22;5070433;28;20032;-77
2022/08/07 01:29:12;;;;;;;2.80;0.95;;;;;;;15.75;57.36;99802.47;5053973;28;20073;-77
2022/08/07 01:31:38;;;;;;;0.88;0.88;;;;;;;15.73;56.59;99785.75;5072134;28;20027;-77
2022/08/07 01:34:04;;;;;;;0.98;0.93;;;;;;;15.10;59.86;99782.25;5071852;28;20486;-77
2022/08/07 01:36:30;;;;;;;1.45;1.10;;;;;;;14.21;63.20;99781.75;5070481;28;20028;-77
2022/08/07 01:38:56;;;;;;;1.42;1.17;;;;;;;14.08;63.54;99788.31;5069923;28;20060;-77
2022/08/07 01:41:22;;;;;;;0.90;0.90;;;;;;;14.42;61.41;99797.09;5070755;28;20025;-77
2022/08/07 01:43:49;;;;;;;1.70;1.00;;;;;;;14.83;59.98;99795.72;5071821;28;20109;-77
2022/08/07 01:46:16;;;;;;;1.08;1.08;;;;;;;14.52;61.78;99791.88;5070429;28;20040;-77
2022/08/07 01:48:44;;;;;;;1.00;1.00;;;;;;;14.91;59.43;99793.38;5071425;28;20085;-77
2022/08/07 01:51:13;;;;;;;1.75;1.15;;;;;;;15.18;58.27;99787.97;5087011;28;20025;-77
2022/08/07 01:53:43;;;;;;;1.90;1.10;;;;;;;15.16;59.29;99797.38;5074048;28;20021;-77
2022/08/07 01:56:16;;;;;;;1.25;1.15;;;;;;;14.28;62.48;99772.44;5074615;28;20111;-77
2022/08/07 01:58:48;;;;;;;1.75;1.50;;;;;;;13.52;65.44;99786.66;5058214;28;20054;-77
2022/08/07 02:01:20;;;;;;;2.15;1.27;;;;;;;13.29;64.92;99777.97;5076022;28;20089;-77
2022/08/07 02:03:52;;;;;;;1.50;1.40;;;;;;;13.01;66.29;99786.03;5075757;28;20112;-77
2022/08/07 02:06:20;;;;;;;1.77;1.63;;;;;;;13.19;65.38;99786.66;5074374;28;20468;-77
2022/08/07 02:08:46;;;;;;;1.50;1.40;;;;;;;13.03;67.19;99792.78;5074196;28;20115;-77
2022/08/07 02:11:12;;;;;;;1.80;1.38;;;;;;;12.99;67.11;99791.66;5074117;28;20026;-77
2022/08/07 02:13:40;;;;;;;3.88;1.58;;;;;;;13.12;66.07;99769.94;5057667;28;20025;-77
2022/08/07 02:16:07;;;;;;;1.55;1.45;;;;;;;13.91;63.83;99781.34;5075479;28;20082;-77
2022/08/07 02:18:36;;;;;;;1.05;1.02;;;;;;;14.04;62.01;99783.69;5073910;28;20032;-77
2022/08/07 02:21:04;;;;;;;1.10;1.00;;;;;;;14.18;61.50;99784.94;5074129;28;20055;-77
2022/08/07 02:23:36;;;;;;;1.35;1.10;;;;;;;14.53;60.28;99790.78;5074005;28;20046;-77
2022/08/07 02:26:03;;;;;;;0.95;0.95;;;;;;;14.75;59.56;99794.28;5073823;28;20032;-77
2022/08/07 02:28:31;;;;;;;1.13;0.90;;;;;;;15.10;58.74;99791.13;5073815;28;20036;-77
2022/08/07 02:31:00;;;;;;;1.02;1.02;;;;;;;15.13;58.57;99787.94;5073814;28;20067;-77
2022/08/07 02:33:27;;;;;;;1.10;1.10;;;;;;;14.85;58.89;99783.63;5075027;28;20495;-77
2022/08/07 02:35:55;;;;;;;1.92;1.00;;;;;;;14.36;60.70;99783.84;5074818;28;20027;-77
2022/08/07 02:38:25;;;;;;;0.93;0.93;;;;;;;14.62;59.30;99769.66;5074768;28;20029;-77
2022/08/07 02:40:52;;;;;;;1.27;1.20;;;;;;;14.62;59.99;99762.41;5074476;28;20028;-77
2022/08/07 02:43:18;;;;;;;3.45;1.27;;;;;;;14.72;59.48;99769.78;5073489;28;20476;-77
2022/08/07 02:45:46;;;;;;;1.30;1.20;;;;;;;14.71;59.23;99778.91;5074923;28;20391;-77
2022/08/07 02:48:12;;;;;;;1.00;1.00;;;;;;;14.94;58.89;99784.78;5056599;28;20032;-77
2022/08/07 02:50:42;;;;;;;1.20;1.10;;;;;;;15.00;58.55;99783.75;5073523;28;20016;-77
2022/08/07 02:53:11;;;;;;;1.00;1.00;;;;;;;15.01;58.69;99784.59;5073456;28;20392;-77
2022/08/07 02:55:42;;;;;;;1.40;0.90;;;;;;;15.26;57.97;99787.53;5074895;28;20028;-77
2022/08/07 02:58:12;;;;;;;0.90;0.90;;;;;;;15.46;57.50;99774.28;5073245;28;20074;-77
2022/08/07 03:00:39;;;;;;;0.90;0.90;;;;;;;15.27;57.51;99761.41;5073182;28;20024;-77
2022/08/07 03:03:07;;;;;;;1.70;1.10;;;;;;;15.07;57.79;99772.00;5073000;28;20048;-77
2022/08/07 03:05:35;;;;;;;3.42;1.77;;;;;;;14.51;60.46;99795.59;5073233;28;20051;-77
2022/08/07 03:08:02;;;;;;;1.25;1.10;;;;;;;15.05;58.53;99787.59;5074365;28;20103;-77
2022/08/07 03:10:28;;;;;;;0.93;0.93;;;;;;;15.28;58.01;99787.25;5074397;28;20048;-77
2022/08/07 03:12:54;;;;;;;1.13;1.02;;;;;;;14.82;57.99;99775.25;5073629;28;20059;-77
2022/08/07 03:15:19;;;;;;;1.85;1.23;;;;;;;14.70;59.38;99794.19;5072872;28;20056;-77
2022/08/07 03:17:45;;;;;;;1.45;1.40;;;;;;;14.45;59.32;99774.31;5072828;28;20407;-77
2022/08/07 03:20:11;;;;;;;1.00;1.00;;;;;;;14.87;59.03;99792.22;5072935;28;20033;-77
2022/08/07 03:22:40;;;;;;;1.27;1.17;;;;;;;15.22;58.01;99789.09;5056307;28;20104;-77
2022/08/07 03:25:06;;;;;;;1.58;1.05;;;;;;;15.28;58.06;99785.38;5072752;28;20480;-77
2022/08/07 03:27:32;;;;;;;1.10;1.10;;;;;;;15.28;57.79;99784.56;5072834;28;20044;-77
2022/08/07 03:29:59;;;;;;;1.00;1.00;;;;;;;15.36;57.69;99792.16;5074040;28;20103;-77
2022/08/07 03:32:32;;;;;;;2.85;1.23;;;;;;;15.28;57.68;99776.50;5056019;28;20032;-77
2022/08/07 03:34:59;;;;;;;1.67;0.90;;;;;;;15.31;57.53;99784.84;5073126;28;20050;-77
2022/08/07 03:37:27;;;;;;;1.02;0.98;;;;;;;15.24;57.55;99788.84;5072751;28;20032;-77
2022/08/07 03:39:53;;;;;;;2.72;1.15;;;;;;;14.98;58.23;99787.78;5072501;28;20496;-77
2022/08/07 03:42:19;;;;;;;2.92;1.52;;;;;;;14.46;60.31;99782.09;5073931;28;20043;-77
2022/08/07 03:44:45;;;;;;;1.83;1.45;;;;;;;13.42;63.24;99773.13;5056208;28;20153;-77
2022/08/07 03:47:11;;;;;;;1.60;1.50;;;;;;;13.77;61.28;99759.41;5055663;28;20040;-77
2022/08/07 03:49:38;;;;;;;1.23;1.13;;;;;;;14.34;60.26;99769.88;5072203;28;20024;-77
2022/08/07 03:52:06;;;;;;;1.45;1.35;;;;;;;14.43;59.39;99766.50;5073806;28;20483;-77
2022/08/07 03:54:31;;;;;;;1.45;1.35;;;;;;;14.69;59.06;99773.78;5072589;28;20578;-77
2022/08/07 03:56:58;;;;;;;1.58;1.00;;;;;;;14.55;58.84;99772.53;5072167;28;20032;-77
2022/08/07 03:59:26;;;;;;;1.00;1.00;;;;;;;14.57;58.88;99761.56;5073918;28;20043;-77
2022/08/07 04:01:54;;;;;;;1.23;1.13;;;;;;;15.02;58.40;99789.72;5073370;28;20024;-77
2022/08/07 04:04:19;;;;;;;1.20;1.10;;;;;;;15.06;57.85;99773.06;5072646;28;20029;-77
2022/08/07 04:06:45;;;;;;;0.90;0.90;;;;;;;15.10;58.02;99793.00;5055491;28;20488;-77
2022/08/07 04:09:12;;;;;;;1.50;1.25;;;;;;;14.49;58.87;99767.34;5073387;28;20028;-77
2022/08/07 04:11:39;;;;;;;1.52;1.17;;;;;;;14.33;60.25;99782.47;5072103;28;20048;-77
2022/08/07 04:14:05;;;;;;;1.38;1.23;;;;;;;14.10;61.02;99775.47;5071760;28;20029;-77
2022/08/07 04:16:31;;;;;;;4.13;1.45;;;;;;;14.05;61.79;99794.16;5054340;28;20032;-77
2022/08/07 04:18:57;;;;;;;2.85;1.23;;;;;;;13.71;62.24;99786.41;5071942;28;20540;-77
2022/08/07 04:21:22;;;;;;;1.67;1.50;;;;;;;12.83;65.79;99781.69;5072114;28;20033;-77
2022/08/07 04:23:48;;;;;;;3.92;1.27;;;;;;;13.00;65.30;99782.53;5071772;28;20031;-77
2022/08/07 04:26:14;;;;;;;2.45;1.38;;;;;;;12.96;66.02;99793.97;5073541;28;20036;-77
2022/08/07 04:28:41;;;;;;;2.38;1.60;;;;;;;12.44;67.80;99795.94;5071439;28;20058;-77
2022/08/07 04:31:07;;;;;;;2.58;1.48;;;;;;;12.22;69.11;99792.25;5071750;28;20068;-77
2022/08/07 04:33:35;;;;;;;2.42;2.00;;;;;;;12.17;69.81;99792.13;5072017;28;20028;-78
2022/08/07 04:36:01;;;;;;;1.63;1.52;;;;;;;12.24;69.65;99788.28;5071713;28;20043;-78
2022/08/07 04:38:26;;;;;;;3.05;1.58;;;;;;;12.14;70.44;99793.44;5072807;28;20037;-77
2022/08/07 04:40:53;;;;;;;4.82;1.95;;;;;;;12.02;70.81;99773.91;5072778;28;20412;-76
2022/08/07 04:43:27;;;;;;;1.73;1.63;;;;;;;12.06;70.89;99793.78;5071338;28;20029;-77
2022/08/07 04:46:08;;;;;;;2.42;2.33;;;;;;;12.16;70.92;99774.47;5071687;28;20078;-78
2022/08/07 04:48:55;;;;;;;1.60;1.50;;;;;;;12.52;70.78;99812.44;5071516;28;20496;-77
2022/08/07 04:51:33;;;;;;;1.58;1.48;;;;;;;12.69;70.81;99813.31;5071519;28;20024;-76
2022/08/07 04:54:05;;;;;;;3.22;1.95;;;;;;;12.58;71.68;99790.06;5071311;28;20376;-76
2022/08/07 04:56:42;;;;;;;2.65;2.42;;;;;;;12.53;71.83;99807.91;5055185;28;20032;-77
2022/08/07 04:59:43;;;;;;;2.45;2.25;;;;;;;12.62;71.13;99807.25;5072466;28;20024;-77
2022/08/07 05:02:16;;;;;;;2.50;2.28;;;;;;;12.32;71.86;99803.97;5082235;28;20047;-77
2022/08/07 05:05:11;;;;;;;3.63;2.20;;;;;;;12.50;72.04;99801.16;5071100;28;20032;-77
2022/08/07 05:07:41;;;;;;;2.70;2.33;;;;;;;12.26;72.95;99806.78;5087556;28;20446;-77
2022/08/07 05:10:40;;;;;;;5.68;2.45;;;;;;;12.24;73.65;99812.38;5072518;28;20379;-77
2022/08/07 05:13:10;;;;;;;3.58;3.22;;;;;;;12.17;74.17;99784.94;5072264;28;20100;-77
2022/08/07 05:15:40;;;;;;;2.85;2.33;;;;;;;12.33;74.02;99808.28;5072467;28;20031;-77
2022/08/07 05:18:12;;;;;;;5.55;2.40;;;;;;;12.12;74.06;99816.13;5072174;28;20145;-77
2022/08/07 05:20:40;;;;;;;3.22;2.80;;;;;;;12.12;73.96;99811.59;5072367;28;20476;-77
2022/08/07 05:23:10;;;;;;;3.33;2.67;;;;;;;12.17;73.76;99802.84;5054152;28;20116;-77
2022/08/07 05:25:36;;;;;;;2.53;2.15;;;;;;;12.21;73.88;99806.69;5070961;28;20032;-77
2022/08/07 05:28:03;;;;;;;2.53;2.00;;;;;;;12.51;73.41;99818.03;5070699;28;20395;-77
2022/08/07 05:30:29;;;;;;;4.38;2.90;;;;;;;12.38;74.41;99820.97;5054263;28;20029;-77
2022/08/07 05:32:56;;;;;;;4.38;2.85;;;;;;;12.25;74.18;99807.84;5070832;28;20115;-76
2022/08/07 05:35:23;;;;;;;1.88;1.67;;;;;;;12.53;73.21;99813.25;5072160;28;20031;-77
2022/08/07 05:37:49;;;;;;;2.60;2.40;;;;;;;13.03;71.41;99816.91;5053599;28;20031;-77
2022/08/07 05:40:16;;;;;;;3.70;3.00;;;;;;;12.67;73.41;99827.97;5070909;28;20029;-77
2022/08/07 05:42:43;;;;;;;2.30;2.20;;;;;;;12.56;73.94;99818.94;5054592;28;20039;-77
2022/08/07 05:45:10;;;;;;;4.35;3.08;;;;;;;12.54;75.07;99818.38;5054414;28;20051;-77
2022/08/07 05:47:36;;;;;;;3.80;2.85;;;;;;;12.43;74.83;99823.75;5070765;28;20032;-77
2022/08/07 05:50:03;;;;;;;2.10;1.98;;;;;;;13.06;72.40;99829.84;5053357;28;20373;-77
2022/08/07 05:52:29;;;;;;;2.03;1.92;;;;;;;13.22;70.64;99823.72;5072081;28;20028;-77
2022/08/07 05:54:54;;;;;;;3.05;2.25;;;;;;;13.30;70.47;99815.25;5070735;28;20029;-77
2022/08/07 05:57:20;;;;;;;1.92;1.70;;;;;;;13.15;72.11;99825.72;5070632;28;20039;-77
2022/08/07 05:59:47;;;;;;;2.97;2.75;;;;;;;13.13;72.13;99835.88;5070941;28;20040;-77
2022/08/07 06:02:16;;;;;;;5.40;2.42;;;;;;;13.44;71.29;99834.53;5070442;28;20055;-77
2022/08/07 06:04:51;;;;;;;3.25;2.95;;;;;;;13.19;72.20;99831.44;5071453;28;20032;-77
2022/08/07 06:07:16;;;;;;;3.40;3.13;;;;;;;13.06;73.46;99832.53;5071868;28;20369;-77
2022/08/07 06:09:43;;;;;;;8.05;2.80;;;;;;;13.23;72.35;99836.06;5071658;28;20074;-77
2022/08/07 06:12:09;;;;;;;3.95;3.40;;;;;;;13.18;72.27;99819.06;5071907;28;20119;-77
2022/08/07 06:14:35;;;;;;;1.95;1.83;;;;;;;13.47;72.15;99832.22;5053975;28;20140;-77
2022/08/07 06:17:03;;;;;;;6.20;2.80;;;;;;;13.51;72.89;99830.66;5070144;28;20380;-77
2022/08/07 06:19:29;;;;;;;3.72;2.75;;;;;;;13.68;71.78;99840.56;5071647;28;20143;-76
2022/08/07 06:21:55;;;;;;;4.13;2.67;;;;;;;14.35;67.94;99831.38;5071384;28;20385;-77
2022/08/07 06:24:21;;;;;;;6.05;3.20;;;;;;;14.77;67.10;99848.56;5070470;28;20031;-77
2022/08/07 06:26:46;;;;;;;5.70;1.85;;;;;;;14.73;66.88;99842.09;5070080;28;20024;-77
2022/08/07 06:29:12;;;;;;;4.10;3.55;;;;;;;14.47;66.97;99829.41;5071294;28;20024;-77
2022/08/07 06:31:37;;;;;;;3.95;2.63;;;;;;;13.54;70.56;99832.84;5053359;28;20503;-77
2022/08/07 06:34:03;;;;;;;3.67;3.30;;;;;;;14.30;68.27;99839.38;5053635;28;20031;-77
2022/08/07 06:36:29;;;;;;;1.77;1.67;;;;;;;15.24;63.80;99821.13;5071509;28;20504;-77
2022/08/07 06:38:55;;;;;;;2.35;2.05;;;;;;;15.30;64.44;99830.84;5071284;28;20024;-77
2022/08/07 06:41:30;;;;;;;2.53;2.33;;;;;;;14.52;66.57;99818.72;5073689;28;20044;-77
2022/08/07 06:43:57;;;;;;;5.28;2.75;;;;;;;14.53;67.88;99825.72;5057408;28;20032;-77
2022/08/07 06:46:23;;;;;;;2.72;2.50;;;;;;;14.31;68.75;99824.09;5073499;28;20060;-77
2022/08/07 06:48:48;;;;;;;2.67;2.47;;;;;;;13.61;70.57;99832.66;5056968;28;20527;-77
2022/08/07 06:51:19;;;;;;;4.15;2.95;;;;;;;14.43;68.09;99820.22;5073487;28;20033;-77
2022/08/07 06:53:45;;;;;;;3.25;2.58;;;;;;;13.98;70.04;99817.69;5075052;28;20025;-77
2022/08/07 06:56:12;;;;;;;5.68;2.60;;;;;;;14.36;68.86;99816.09;5056887;28;20033;-77
2022/08/07 06:58:39;;;;;;;2.80;2.60;;;;;;;14.45;67.62;99826.16;5073655;28;20120;-77
2022/08/07 07:01:07;;;;;;;3.50;2.60;;;;;;;14.60;67.95;99826.34;5073336;28;20111;-77
2022/08/07 07:03:36;;;;;;;1.73;1.58;;;;;;;14.82;66.44;99820.94;5074674;28;20021;-78
2022/08/07 07:06:02;;;;;;;5.45;2.78;;;;;;;14.42;68.04;99821.28;5073351;28;20025;-77
2022/08/07 07:08:28;;;;;;;5.68;2.83;;;;;;;14.47;69.02;99821.34;5073315;28;20024;-77
2022/08/07 07:10:55;;;;;;;5.40;2.60;;;;;;;14.47;67.76;99823.22;5073383;28;20370;-77
2022/08/07 07:13:40;;;;;;;2.95;2.65;;;;;;;14.26;69.34;99820.22;5074300;28;20020;-76
2022/08/07 07:16:15;;;;;;;5.32;2.90;;;;;;;14.65;70.59;99823.72;5073260;28;20380;-76
2022/08/07 07:18:48;;;;;;;4.55;3.08;;;;;;;14.74;70.16;99813.34;5074366;28;20036;-76
2022/08/07 07:21:19;;;;;;;4.75;2.53;;;;;;;15.13;68.84;99819.41;5073231;28;20476;-77
2022/08/07 07:23:46;;;;;;;6.07;3.00;;;;;;;15.09;68.35;99805.66;5074209;28;20029;-77
2022/08/07 07:26:16;;;;;;;2.35;1.95;;;;;;;15.48;67.16;99812.50;5073153;28;20395;-77
2022/08/07 07:28:47;;;;;;;3.25;2.60;;;;;;;15.23;68.23;99819.47;5074605;28;20039;-77
2022/08/07 07:31:33;;;;;;;4.47;2.33;;;;;;;15.89;64.79;99802.03;5072816;28;20365;-77
2022/08/07 07:34:05;;;;;;;2.47;2.10;;;;;;;15.74;65.24;99813.50;5073847;28;20024;-77
2022/08/07 07:36:32;;;;;;;2.85;1.80;;;;;;;15.48;65.37;99806.31;5056325;28;20037;-77
2022/08/07 07:39:01;;;;;;;2.40;2.20;;;;;;;15.97;65.84;99815.81;5073569;28;20055;-77
2022/08/07 07:41:28;;;;;;;6.15;1.95;;;;;;;15.71;66.09;99809.44;5074030;28;20042;-77
2022/08/07 07:43:56;;;;;;;2.45;1.50;;;;;;;16.20;64.08;99815.41;5055865;28;20040;-77
2022/08/07 07:46:22;;;;;;;1.48;1.38;;;;;;;16.69;62.89;99807.84;5055665;28;20035;-77
2022/08/07 07:48:50;;;;;;;1.73;1.50;;;;;;;17.10;61.28;99796.06;5055624;28;20025;-77
2022/08/07 07:51:18;;;;;;;2.38;1.52;;;;;;;16.14;62.27;99802.97;5088163;28;20028;-76
2022/08/07 07:53:45;;;;;;;1.65;1.35;;;;;;;16.15;61.17;99807.31;5072538;28;20048;-77
2022/08/07 07:56:12;;;;;;;3.28;1.73;;;;;;;15.93;62.55;99792.34;5073744;28;20025;-77
2022/08/07 07:58:39;;;;;;;1.48;1.10;;;;;;;16.59;62.03;99791.63;5072451;28;20021;-77
2022/08/07 08:01:06;;;;;;;3.22;1.52;;;;;;;17.62;59.84;99790.47;5071897;28;20119;-77
2022/08/07 08:03:34;;;;;;;2.00;1.30;;;;;;;18.19;58.11;99789.28;5071968;28;20034;-77
2022/08/07 08:06:00;;;;;;;1.20;1.10;;;;;;;18.20;57.32;99786.31;5072143;28;20036;-77
2022/08/07 08:08:31;;;;;;;2.25;1.30;;;;;;;17.15;58.21;99798.78;5071785;28;20070;-77
2022/08/07 08:11:02;;;;;;;2.00;1.77;;;;;;;16.75;59.79;99785.22;5073270;28;20488;-77
2022/08/07 08:13:28;;;;;;;1.30;1.10;;;;;;;17.59;59.13;99792.91;5088670;28;20054;-77
2022/08/07 08:15:57;;;;;;;1.63;1.33;;;;;;;18.26;58.18;99789.81;5071495;28;20024;-77
2022/08/07 08:18:26;;;;;;;3.70;1.30;;;;;;;17.54;58.60;99799.09;5071362;28;20063;-77
2022/08/07 08:20:52;;;;;;;2.05;1.35;;;;;;;17.58;58.13;99781.28;5072960;28;20073;-77
2022/08/07 08:28:52;;;;;;;4.22;1.35;;;;;;;16.99;57.81;99796.34;5073059;28;20087;-77
2022/08/07 08:31:25;;;;;;;1.17;1.00;;;;;;;17.90;57.96;99787.19;5071357;28;20044;-77
2022/08/07 08:33:55;;;;;;;1.10;1.00;;;;;;;18.47;56.47;99788.69;5071498;28;20034;-77
2022/08/07 08:36:24;;;;;;;1.70;1.30;;;;;;;18.21;56.19;99781.72;5072660;28;20024;-77
2022/08/07 08:38:50;;;;;;;2.13;1.20;;;;;;;17.68;57.02;99775.88;5070989;28;20021;-77
2022/08/07 08:41:49;;;;;;;2.85;1.38;;;;;;;17.22;56.75;99785.03;5054564;28;20047;-77
2022/08/07 08:44:27;;;;;;;7.40;1.20;;;;;;;17.49;57.27;99784.78;5072356;28;20132;-77
2022/08/07 08:47:02;;;;;;;3.47;1.10;;;;;;;18.38;57.96;99782.19;5070982;28;20035;-77
2022/08/07 08:50:06;;;;;;;2.85;1.30;;;;;;;17.97;56.70;99782.31;5072262;28;20621;-77
2022/08/07 08:52:48;;;;;;;2.45;1.10;;;;;;;18.47;56.66;99777.88;5072324;28;20021;-78
2022/08/07 08:55:23;;;;;;;2.17;1.20;;;;;;;18.19;56.40;99767.66;5070692;28;20381;-77
2022/08/07 08:58:11;;;;;;;3.45;1.42;;;;;;;18.10;56.17;99769.31;5072054;28;20028;-77
2022/08/07 09:00:44;;;;;;;2.92;1.70;;;;;;;18.23;55.74;99760.63;5070367;28;20070;-77
2022/08/07 09:03:37;;;;;;;2.15;1.05;;;;;;;18.26;56.98;99747.34;5070833;28;20024;-77
2022/08/07 09:06:10;;;;;;;0.60;0.60;;;;;;;19.92;54.25;99767.88;5072030;28;20020;-77
2022/08/07 09:08:46;;;;;;;2.60;0.90;;;;;;;20.18;53.92;99765.72;5070705;28;20024;-77
2022/08/07 09:11:39;;;;;;;1.42;0.80;;;;;;;20.35;53.00;99754.44;5072117;28;20475;-77
2022/08/07 09:14:13;;;;;;;2.88;0.98;;;;;;;20.75;51.65;99762.84;5073393;28;20031;-77
2022/08/07 09:17:03;;;;;;;1.30;0.90;;;;;;;20.82;51.34;99760.56;5070475;28;20376;-77
2022/08/07 09:19:32;;;;;;;1.92;0.95;;;;;;;20.06;52.32;99760.69;5070608;28;20432;-77
2022/08/07 09:22:35;;;;;;;2.03;0.98;;;;;;;20.70;52.10;99759.41;5070560;28;20107;-77
2022/08/07 09:25:15;;;;;;;1.67;0.70;;;;;;;20.32;48.93;99734.13;5071867;28;20024;-77
2022/08/07 09:27:58;;;;;;;2.70;0.77;;;;;;;19.56;49.44;99736.00;5071680;28;20021;-77
2022/08/07 09:30:28;;;;;;;1.13;0.70;;;;;;;20.28;51.58;99741.22;5070432;28;20039;-77
2022/08/07 09:33:19;;;;;;;1.50;0.65;;;;;;;19.80;49.54;99740.38;5070203;28;20172;-77
2022/08/07 09:35:55;;;;;;;1.05;0.70;;;;;;;19.63;48.75;99731.06;5070534;28;20038;-77
2022/08/07 09:39:05;;;;;;;3.20;1.58;;;;;;;19.86;48.25;99731.09;5071231;28;20504;-78
2022/08/07 09:41:59;;;;;;;2.10;0.75;;;;;;;20.40;51.50;99717.19;5072578;28;20024;-78
2022/08/07 09:45:10;;;;;;;1.10;1.00;;;;;;;20.22;47.58;99723.41;5070337;28;20040;-77
2022/08/07 09:48:03;;;;;;;0.90;0.90;;;;;;;21.34;48.86;99721.50;5071827;28;20492;-77
2022/08/07 09:50:55;;;;;;;1.80;1.00;;;;;;;21.56;48.38;99715.41;5071299;28;20688;-77
2022/08/07 09:53:23;;;;;;;0.90;0.90;;;;;;;21.67;48.05;99714.94;5071406;28;20032;-78
2022/08/07 09:56:07;;;;;;;1.30;0.50;;;;;;;21.90;47.98;99715.91;5071451;28;20529;-78
2022/08/07 09:58:48;;;;;;;0.60;0.60;;;;;;;21.78;47.08;99709.31;5071384;28;20031;-77
2022/08/07 10:01:23;;;;;;;1.15;0.90;;;;;;;22.26;46.83;99705.09;5070172;28;20035;-77
2022/08/07 10:04:00;;;;;;;1.02;0.70;;;;;;;22.37;46.24;99688.28;5071346;28;20033;-78
2022/08/07 10:07:01;;;;;;;1.45;0.80;;;;;;;22.41;46.04;99695.84;5070024;28;20032;-78
2022/08/07 10:09:26;;;;;;;2.10;0.70;;;;;;;21.81;45.87;99695.13;5072218;28;20032;-78
2022/08/07 10:12:07;;;;;;;1.52;0.65;;;;;;;22.36;46.35;99694.84;5069755;28;20589;-77
2022/08/07 10:14:35;;;;;;;1.65;1.13;;;;;;;22.33;45.03;99689.19;5072810;28;20107;-78
2022/08/07 10:17:22;;;;;;;0.85;0.80;;;;;;;21.74;45.35;99692.00;5073625;28;20503;-78
2022/08/07 10:20:00;;;;;;;0.80;0.80;;;;;;;21.41;47.10;99680.38;5075342;28;20428;-77
2022/08/07 10:22:43;;;;;;;1.40;1.08;;;;;;;21.90;46.36;99669.69;5075073;28;20432;-77
2022/08/07 10:25:58;;;;;;;1.10;0.90;;;;;;;21.60;43.77;99662.09;5073679;28;20170;-78
2022/08/07 10:28:46;;;;;;;2.60;1.15;;;;;;;22.18;43.52;99656.88;5055654;28;20070;-78
2022/08/07 10:31:21;;;;;;;1.05;0.95;;;;;;;22.09;46.05;99669.56;5073533;28;20035;-78
2022/08/07 10:33:53;;;;;;;0.80;0.73;;;;;;;21.40;43.67;99660.56;5074964;28;20013;-77
2022/08/07 10:36:45;;;;;;;1.15;0.60;;;;;;;21.70;43.75;99658.38;5073696;28;20481;-78
2022/08/07 10:39:32;;;;;;;1.15;0.60;;;;;;;22.74;46.17;99654.53;5073212;28;20028;-78
2022/08/07 10:42:21;;;;;;;1.33;0.80;;;;;;;23.58;43.61;99633.63;5073259;28;20033;-78
2022/08/07 10:45:22;;;;;;;2.38;0.90;;;;;;;21.78;43.35;99647.59;5074570;28;20056;-78
2022/08/07 10:48:00;;;;;;;1.55;0.90;;;;;;;21.56;43.26;99647.50;5074087;28;20045;-78
2022/08/07 10:50:31;;;;;;;0.90;0.90;;;;;;;20.92;44.14;99640.19;5072975;28;20094;-78
2022/08/07 10:53:18;;;;;;;1.15;1.00;;;;;;;22.90;45.44;99635.91;5073108;28;20017;-78
2022/08/07 10:55:52;;;;;;;1.98;1.00;;;;;;;23.57;43.72;99629.25;5073086;28;20419;-78
2022/08/07 10:58:51;;;;;;;0.75;0.57;;;;;;;23.66;43.04;99637.47;5056241;28;20029;-78
2022/08/07 11:01:44;;;;;;;1.75;0.70;;;;;;;22.66;42.21;99636.22;5074237;28;20533;-78
2022/08/07 11:04:29;;;;;;;1.35;0.60;;;;;;;22.92;44.50;99631.78;5072911;28;20020;-78
2022/08/07 11:07:21;;;;;;;2.85;1.20;;;;;;;23.45;43.50;99623.63;5071875;28;20443;-78
2022/08/07 11:09:54;;;;;;;1.20;1.05;;;;;;;22.97;41.58;99630.84;5072877;28;20027;-78
2022/08/07 11:12:33;;;;;;;0.55;0.50;;;;;;;23.78;42.94;99610.44;5072951;28;20423;-78
2022/08/07 11:15:06;;;;;;;0.50;0.50;;;;;;;24.75;39.26;99623.59;5074100;28;20029;-78
2022/08/07 11:17:48;;;;;;;3.35;1.40;;;;;;;22.78;40.54;99611.19;5072353;28;20060;-78
2022/08/07 11:21:03;;;;;;;1.10;0.80;;;;;;;22.84;41.75;99627.09;5073965;28;20504;-78
2022/08/07 11:23:55;;;;;;;2.58;0.90;;;;;;;22.39;41.75;99628.91;5086987;28;20044;-78
2022/08/07 11:26:56;;;;;;;2.47;0.93;;;;;;;22.55;42.63;99615.78;5081594;28;20052;-78
2022/08/07 11:29:30;;;;;;;1.00;0.52;;;;;;;24.16;43.20;99622.41;5088806;28;20123;-78
2022/08/07 11:32:14;;;;;;;0.98;0.60;;;;;;;25.62;40.66;99605.88;5072495;28;20024;-78
2022/08/07 11:34:56;;;;;;;1.42;0.60;;;;;;;25.43;39.62;99610.91;5073913;28;20074;-78
2022/08/07 11:37:33;;;;;;;1.48;0.63;;;;;;;23.69;40.26;99607.69;5073318;28;20032;-78
2022/08/07 11:40:17;;;;;;;2.33;0.63;;;;;;;25.47;38.91;99600.97;5071772;28;20665;-78
2022/08/07 11:42:56;;;;;;;3.25;0.73;;;;;;;24.44;38.86;99601.09;5073612;28;20025;-78
2022/08/07 11:45:52;;;;;;;1.27;0.70;;;;;;;24.16;38.83;99599.78;5073524;28;20031;-78
2022/08/07 11:48:26;;;;;;;0.82;0.63;;;;;;;24.29;38.38;99598.81;5071887;28;20021;-78
2022/08/07 11:51:15;;;;;;;1.45;0.82;;;;;;;23.65;38.98;99584.09;5071817;28;20036;-78
2022/08/07 11:53:51;;;;;;;1.20;0.60;;;;;;;23.94;39.61;99592.47;5073549;28;20069;-78
2022/08/07 11:56:19;;;;;;;;;;;;;;;24.30;39.26;99600.44;5073810;28;20533;-78
2022/08/07 11:59:28;;;;;;;0.93;0.77;;;;;;;25.11;41.57;99572.13;5088677;28;20500;-78
2022/08/07 12:02:31;;;;;;;1.70;0.85;;;;;;;25.19;38.25;99584.94;5072161;28;20617;-78
2022/08/07 12:05:23;;;;;;;2.15;1.10;;;;;;;25.12;36.61;99579.16;5073068;28;20457;-78